首页
METAR-TAF:

METAR-TAF

机场 :

舍爾納克, 土耳其

纬度: 37-21-50N, 经度: 42-03-36E, 海拔: 621米

当前天气观测

该预报发布于9小时和2分钟前的12:50 UTC
风速6节,风向西,在南转西南西北之间变化
温度 40°C
湿度 7%
气压 1006 hPa
能见度10公里或以上
1500米以下无云,无积雨云

METAR: LTCV 181250Z 28006KT 210V320 CAVOK 40/M02 Q1006

时间: 00:52 (21:52 UTC)

预报

该预报发布于5小时和12分钟前的16:40 UTC
预报有效从18日的 18点(UTC)到 19日的 18点(UTC)
风速8节,风向西转西北
能见度10公里或以上
1500米以下无云,无积雨云
成为
从 19日的 07点(UTC)到 19日的 10点(UTC)
风速10节,风向

TAF: LTCV 181640Z 1818/1918 29008KT CAVOK BECMG 1907/1910 19010KT

超过4000个机场的气象观测和天气预报(METAR&TAF报告)。

可查询的气象台以黄色和红色小点在地图上表示。

将鼠标移到小点上方,可查看气象台名称。

然后点击查看天气观测和预报。

如需切换地图:点击带黑十字的绿色按钮放大地图;点击带横线的绿色按钮缩小地图;或者点击绿色箭头查看邻近地区的地图。


METAR-TAF: